AirNav   Pilot Hours Calculator
 
 542 users online  

8CA0 Osborne Airport
Victorville, California, USA

GOING TO VICTORVILLE?


FAA INFORMATION EFFECTIVE 03 NOVEMBER 2022

Location

FAA Identifier: 8CA0
Lat/Long: 34-35-01.9770N 117-16-00.1610W
34-35.032950N 117-16.002683W
34.5838825,-117.2667114
(estimated)
Elevation: 2900 ft. / 884 m (estimated)
Variation: 14E (1990)
From city: 4 miles NE of VICTORVILLE, CA
Time zone: UTC -8 (UTC -7 during Daylight Saving Time)
Zip code: 92307

Airport Operations

Airport use: Private use. Permission required prior to landing
Activation date: 04/1991
Control tower: no
ARTCC: LOS ANGELES CENTER
FSS: RIVERSIDE FLIGHT SERVICE STATION
Attendance: MON-FRI 0700-1900
Wind indicator: yes
Segmented circle: no

Airport Communications

WX AWOS-3 at VCV (6 nm W): 135.475 (760-246-3635)

Nearby radio navigation aids

VOR radial/distance  VOR name  Freq  Var
VCVr082/6.1VICTORVILLE VOR/DME109.0514E
EDWr124/33.1EDWARDS VORTAC116.4012E
RALr360/(38.8)RIVERSIDE VOR108.6014E
PMDr079/39.5PALMDALE VORTAC114.5015E
POMr025/39.8POMONA VORTAC110.4015E

Airport Services

Runway Information

Runway 2/20

Dimensions: 2600 x 80 ft. / 792 x 24 m
Surface: asphalt
RUNWAY 2  RUNWAY 20
Traffic pattern: leftleft
Obstructions: 20 ft. sign, 5200 ft. from runway50 ft. pline, 5200 ft. from runway

Airport Ownership and Management from official FAA records

Ownership: Privately-owned
Owner: J. L. OSBORNE
18173 OSBORNE ROAD
VICTORVILLE, CA 92394
Phone 760-245-8477
Manager: J. L. OSBORNE
18173 OSBORNE ROAD
VICTORVILLE, CA 92394
Phone 760-245-8477

Additional Remarks

FOR CD CTC JOSHUA APCH AT 661-277-3843.

Instrument Procedures

There are no published instrument procedures at 8CA0.

Some nearby airports with instrument procedures:

KAPV - Apple Valley Airport (4 nm E)
KVCV - Southern California Logistics Airport (6 nm W)
L35 - Big Bear City Airport (28 nm SE)
KDAG - Barstow-Daggett Airport (29 nm NE)
KSBD - San Bernardino International Airport (29 nm S)
 
Loc | Ops | Rwys | IFR | FBO | Links
Com | Nav | Svcs | Stats | Notes

Luxivair - San Bernardino International Airport
 
Area around 8CA0 (Osborne Airport)
 
Road maps at: MapQuest Bing Google
 
Aerial photo
No photo
 
Sectional chart

 
Airport distance calculator
Flying to Osborne Airport? Find the distance to fly.

From to 8CA0

Sunrise and sunset
Times for 28-Nov-2022
 Local
(UTC-8)
 Zulu
(UTC)
Morning civil twilight06:0914:09
Sunrise06:3614:36
Sunset16:3800:38
Evening civil twilight17:0501:05

Current date and time
Zulu (UTC)  28-Nov-2022 11:43:45
Local (UTC-8)  28-Nov-2022 03:43:45
 
METAR
KVCV 
6nm W 
281115Z AUTO 19006KT 9SM CLR 09/M02 A2994 RMK AO2
TAF
KDAG 
29nm NE 
280535Z 2806/2906 27005KT P6SM BKN250 FM281700 25022G32KT P6SM BKN250 FM282000 25032G45KT 4SM BLDU SCT250
KSBD 
29nm S 
280523Z 2806/2906 VRB04KT P6SM SCT250 FM281300 VRB05KT P6SM BKN010 FM281630 VRB05KT P6SM SCT010 FM282200 25007KT P6SM BKN250 FM290200 25010KT P6SM VCSH BKN020 BKN250
KONT 
36nm SW 
280907Z 2809/2912 VRB04KT 5SM BR SCT006 BKN250 TEMPO 2809/2813 BKN006 FM281300 VRB04KT P6SM BKN010 BKN250 FM281730 VRB05KT P6SM SCT010 BKN250 FM282100 25008KT P6SM BKN250 FM290000 26010KT P6SM VCSH BKN020 BKN250 FM290600 28005KT P6SM VCSH BKN020 BKN250
NOTAMs
Click for the latest NOTAMs
NOTAMs are issued by the DoD/FAA and will open in a separate window not controlled by AirNav.

 

 
 

Would you like to see your business listed on this page?

 If your business provides an interesting product or service to pilots, flight crews, aircraft, or users of the Osborne Airport, you should consider listing it here.  To start the listing process, click on the button below
 
Add a business
 

Other Pages about Osborne Airport

Update a link
 
Copyright © AirNav, LLC. All rights reserved. Privacy Policy  Contact